Wainfleet, United Kingdom
Current Conditions -  °F | °C
As of 2:50 PM on Wednesday 22 Oct 2014 (Local Time) from EGXC Reporting Station
Overcast Overcast  
Wind Chill: 54°   Ceiling: 3000
Heat Index: 54°   Visibility: 6mi
Dew Point: 46°   Wind: 15mph
Humidity: 77%   Direction: 250°WSW
Pressure: 30.18"   Gusts: NA
Location:  53.03°N, 0.27°E
Report Text: EGXC 221350Z 25013KT 9999 BKN030 OVC060 12/08 Q1022 BLU TEMPO 7000 -RA WHT
Loading
Personal Weather Stations






























Interactive Weather Map
Tropical Storm Tracking
New forecast layout! Learn more

10-Day Weather Forecast

Advertisements
Track Severe Weather on mobile